Ursa Minor — ICGH — position and weather

sailwx.info

Track history (hours):
 
Tides and Currents Weather Stations Pressure Air Temp Water Temp Dewpoint Dewpoint Depression Visibility Wind Speed Wind Dir Waves Ship Positions

Ursa Minor

Last reported at 2014-Aug-16 17:18 UTC. Time now 2014-Aug-29 10:21 UTC.
Position N 43°27' E 010°03'.
Warning: this ship's position is 12 days out of date.

Length 205 m; draft 8.4 m.

MMSI: 247082300.

Date/timePositionNaut miles runAvg speedWind from/ knotsBaromVisibWave heightAir tempDewpointWater temp
2014-Aug-16 17:18N 43°27' E 010°03'1013.2
2014-Aug-16 16:33N 43°35' E 009°55'1313.1
2014-Aug-16 15:33N 43°44' E 009°43'1313.1
2014-Aug-16 14:33N 43°54' E 009°30'1312.9
2014-Aug-16 13:33N 44°03' E 009°18'1312.8
2014-Aug-16 12:33N 44°13' E 009°06'1312.7
2014-Aug-16 11:33N 44°22' E 008°55'3 2.9
2014-Aug-16 10:33N 44°24' E 008°52'0 0.0
2014-Aug-16 09:33N 44°24' E 008°52'0 0.0
2014-Aug-16 08:33N 44°24' E 008°52'0 0.0
2014-Aug-16 07:33N 44°24' E 008°52'0 0.3
2014-Aug-16 06:34N 44°24' E 008°52'0 0.5
2014-Aug-16 05:33N 44°24' E 008°53'9 8.9
2014-Aug-16 04:33N 44°18' E 009°02'1313.1
2014-Aug-16 03:33N 44°08' E 009°14'1312.9
2014-Aug-16 02:33N 43°58' E 009°26'1312.6
2014-Aug-16 01:33N 43°49' E 009°38'1212.2
2014-Aug-16 00:33N 43°40' E 009°49'1212.0
2014-Aug-15 23:33N 43°31' E 010°00'1211.5
2014-Aug-15 22:33N 43°21' E 010°08'1111.5
2014-Aug-15 21:33N 43°11' E 010°16'  
2014-Aug-12 12:12N 39°14' E 014°59'913.2
2014-Aug-12 11:33N 39°21' E 014°54'6612.9
2014-Aug-12 06:26N 40°19' E 014°12'3812.5
2014-Aug-12 03:22N 40°46' E 013°36'22712.8
2014-Aug-11 09:33N 43°29' E 010°02'1312.9
2014-Aug-11 08:33N 43°38' E 009°51'4312.5
2014-Aug-11 05:08N 44°10' E 009°10'1012.6
2014-Aug-11 04:21N 44°17' E 009°00'911.4
2014-Aug-11 03:33N 44°24' E 008°53'0 0.4
2014-Aug-11 02:31N 44°24' E 008°52'0 0.0
2014-Aug-11 01:31N 44°24' E 008°52'0 0.0
2014-Aug-11 00:31N 44°24' E 008°52'0 0.0
2014-Aug-10 23:28N 44°24' E 008°52'0 0.0
2014-Aug-10 22:33N 44°24' E 008°52'0 0.2
2014-Aug-10 21:33N 44°24' E 008°52'2 1.8
2014-Aug-10 20:34N 44°24' E 008°54'4 3.8
2014-Aug-10 19:33N 44°21' E 008°58'1212.2
2014-Aug-10 18:33N 44°12' E 009°09'1312.9
2014-Aug-10 17:33N 44°02' E 009°21'1313.0
2014-Aug-10 16:33N 43°52' E 009°33'1312.9
2014-Aug-10 15:33N 43°43' E 009°46'1312.7
2014-Aug-10 14:33N 43°33' E 009°57'1212.4
2014-Aug-10 13:33N 43°23' E 010°06'1312.6
2014-Aug-10 12:33N 43°12' E 010°15'1412.6
2014-Aug-10 11:29N 43°01' E 010°25'1212.8
2014-Aug-10 10:31N 42°50' E 010°33'2512.8
2014-Aug-10 08:32N 42°30' E 010°53'1212.6
2014-Aug-10 07:33N 42°21' E 011°06'12712.7
2014-Aug-09 21:33N 40°59' E 013°15'1312.7
2014-Aug-09 20:31N 40°50' E 013°29'1212.8
2014-Aug-09 19:33N 40°43' E 013°41'1312.8
2014-Aug-09 18:33N 40°34' E 013°54'1612.7
2014-Aug-09 17:17N 40°23' E 014°09'  
2014-Aug-06 19:14N 40°20' E 014°11'  
Track history (hours):
 
Tides and Currents Weather Stations Pressure Air Temp Water Temp Dewpoint Dewpoint Depression Visibility Wind Speed Wind Dir Waves Ship Positions

Ursa Minor

Last reported at 2014-Aug-16 17:18 UTC. Time now 2014-Aug-29 10:21 UTC.
Position N 43°27' E 010°03'.
Warning: this ship's position is 12 days out of date.

Length 205 m; draft 8.4 m.

MMSI: 247082300.

Date/timePositionNaut miles runAvg speedWind from/ knotsBaromVisibWave heightAir tempDewpointWater temp
2014-Aug-16 17:18N 43°27' E 010°03'1013.2
2014-Aug-16 16:33N 43°35' E 009°55'1313.1
2014-Aug-16 15:33N 43°44' E 009°43'1313.1
2014-Aug-16 14:33N 43°54' E 009°30'1312.9
2014-Aug-16 13:33N 44°03' E 009°18'1312.8
2014-Aug-16 12:33N 44°13' E 009°06'1312.7
2014-Aug-16 11:33N 44°22' E 008°55'3 2.9
2014-Aug-16 10:33N 44°24' E 008°52'0 0.0
2014-Aug-16 09:33N 44°24' E 008°52'0 0.0
2014-Aug-16 08:33N 44°24' E 008°52'0 0.0
2014-Aug-16 07:33N 44°24' E 008°52'0 0.3
2014-Aug-16 06:34N 44°24' E 008°52'0 0.5
2014-Aug-16 05:33N 44°24' E 008°53'9 8.9
2014-Aug-16 04:33N 44°18' E 009°02'1313.1
2014-Aug-16 03:33N 44°08' E 009°14'1312.9
2014-Aug-16 02:33N 43°58' E 009°26'1312.6
2014-Aug-16 01:33N 43°49' E 009°38'1212.2
2014-Aug-16 00:33N 43°40' E 009°49'1212.0
2014-Aug-15 23:33N 43°31' E 010°00'1211.5
2014-Aug-15 22:33N 43°21' E 010°08'1111.5
2014-Aug-15 21:33N 43°11' E 010°16'  
2014-Aug-12 12:12N 39°14' E 014°59'913.2
2014-Aug-12 11:33N 39°21' E 014°54'6612.9
2014-Aug-12 06:26N 40°19' E 014°12'3812.5
2014-Aug-12 03:22N 40°46' E 013°36'22712.8
2014-Aug-11 09:33N 43°29' E 010°02'1312.9
2014-Aug-11 08:33N 43°38' E 009°51'4312.5
2014-Aug-11 05:08N 44°10' E 009°10'1012.6
2014-Aug-11 04:21N 44°17' E 009°00'911.4
2014-Aug-11 03:33N 44°24' E 008°53'0 0.4
2014-Aug-11 02:31N 44°24' E 008°52'0 0.0
2014-Aug-11 01:31N 44°24' E 008°52'0 0.0
2014-Aug-11 00:31N 44°24' E 008°52'0 0.0
2014-Aug-10 23:28N 44°24' E 008°52'0 0.0
2014-Aug-10 22:33N 44°24' E 008°52'0 0.2
2014-Aug-10 21:33N 44°24' E 008°52'2 1.8
2014-Aug-10 20:34N 44°24' E 008°54'4 3.8
2014-Aug-10 19:33N 44°21' E 008°58'1212.2
2014-Aug-10 18:33N 44°12' E 009°09'1312.9
2014-Aug-10 17:33N 44°02' E 009°21'1313.0
2014-Aug-10 16:33N 43°52' E 009°33'1312.9
2014-Aug-10 15:33N 43°43' E 009°46'1312.7
2014-Aug-10 14:33N 43°33' E 009°57'1212.4
2014-Aug-10 13:33N 43°23' E 010°06'1312.6
2014-Aug-10 12:33N 43°12' E 010°15'1412.6
2014-Aug-10 11:29N 43°01' E 010°25'1212.8
2014-Aug-10 10:31N 42°50' E 010°33'2512.8
2014-Aug-10 08:32N 42°30' E 010°53'1212.6
2014-Aug-10 07:33N 42°21' E 011°06'12712.7
2014-Aug-09 21:33N 40°59' E 013°15'1312.7
2014-Aug-09 20:31N 40°50' E 013°29'1212.8
2014-Aug-09 19:33N 40°43' E 013°41'1312.8
2014-Aug-09 18:33N 40°34' E 013°54'1612.7
2014-Aug-09 17:17N 40°23' E 014°09'  
2014-Aug-06 19:14N 40°20' E 014°11'  

Dump ship's entire track history